createdAt,value
2019-04-23T00:02:25.203Z,88.60
2019-04-23T00:04:53.051Z,88.90
2019-04-23T00:07:51.241Z,89.50
2019-04-23T00:10:09.620Z,89.70
2019-04-23T00:12:44.078Z,90.00
2019-04-23T00:15:10.534Z,90.30
2019-04-23T00:17:48.843Z,90.30
2019-04-23T00:20:42.379Z,90.60
2019-04-23T00:23:11.072Z,90.70
2019-04-23T00:26:08.080Z,91.00
2019-04-23T00:28:45.616Z,91.20
2019-04-23T00:31:20.961Z,91.50
2019-04-23T00:33:55.598Z,91.70
2019-04-23T00:36:27.256Z,92.20
2019-04-23T00:38:50.057Z,92.00
2019-04-23T00:41:24.993Z,92.20
2019-04-23T00:44:15.008Z,92.30
2019-04-23T00:49:04.994Z,92.80
2019-04-23T00:51:36.400Z,93.00
2019-04-23T00:54:06.423Z,93.40
2019-04-23T00:59:11.854Z,93.80
2019-04-23T01:01:59.357Z,94.10
2019-04-23T01:04:12.057Z,94.30
2019-04-23T01:06:46.037Z,94.50
2019-04-23T01:09:15.527Z,94.80
2019-04-23T01:11:52.282Z,95.10
2019-04-23T01:14:23.016Z,95.30
2019-04-23T01:16:55.186Z,95.60
2019-04-23T01:19:33.188Z,95.90
2019-04-23T01:21:43.702Z,96.10
2019-04-23T01:24:37.188Z,96.40
2019-04-23T01:27:49.193Z,96.60
2019-04-23T01:30:10.109Z,96.80
2019-04-23T01:32:38.163Z,97.10
2019-04-23T01:35:17.235Z,97.50
2019-04-23T01:37:52.363Z,97.70
2019-04-23T01:40:19.104Z,97.90
2019-04-23T01:43:14.365Z,98.10
2019-04-23T01:45:35.912Z,98.40
2019-04-23T01:48:13.128Z,98.70
2019-04-23T01:50:55.044Z,98.90
2019-04-23T01:55:52.750Z,99.30
2019-04-23T02:00:57.925Z,99.60
2019-04-23T02:03:48.542Z,99.90
2019-04-23T02:06:10.195Z,99.90
2019-04-23T02:08:45.271Z,99.90
2019-04-23T02:11:16.495Z,99.90
2019-04-23T02:13:55.339Z,99.90
2019-04-23T02:16:26.150Z,99.90
2019-04-23T02:19:07.705Z,99.90
2019-04-23T02:21:33.440Z,99.90
2019-04-23T02:23:57.242Z,99.90
2019-04-23T02:26:34.310Z,99.90
2019-04-23T02:34:35.815Z,99.90
2019-04-23T02:39:21.869Z,99.90
2019-04-23T02:44:24.146Z,99.90
2019-04-23T02:47:00.102Z,99.90
2019-04-23T02:49:31.487Z,99.90
2019-04-23T02:52:01.812Z,99.90
2019-04-23T02:56:55.284Z,99.90
2019-04-23T03:07:37.643Z,99.90
2019-04-23T03:12:31.836Z,99.90
2019-04-23T03:15:14.896Z,99.90
2019-04-23T03:18:11.920Z,99.90
2019-04-23T03:23:27.440Z,99.90
2019-04-23T03:26:15.614Z,99.90
2019-04-23T03:28:37.769Z,99.90
2019-04-23T03:41:32.400Z,99.90
2019-04-23T03:52:37.039Z,99.90
2019-04-23T03:57:30.726Z,99.90
2019-04-23T04:05:10.689Z,99.90
2019-04-23T04:07:55.777Z,99.90
2019-04-23T04:12:49.288Z,99.90
2019-04-23T04:15:43.273Z,99.90
2019-04-23T04:18:28.520Z,99.90
2019-04-23T04:25:42.807Z,99.90
2019-04-23T04:28:17.763Z,99.90
2019-04-23T04:30:45.389Z,99.90
2019-04-23T04:36:10.684Z,99.90
2019-04-23T04:53:50.503Z,99.90
2019-04-23T04:59:05.291Z,99.90
2019-04-23T05:03:52.856Z,99.90
2019-04-23T05:06:46.476Z,99.90
2019-04-23T05:09:11.421Z,99.90
2019-04-23T05:11:54.286Z,99.90
2019-04-23T05:14:13.353Z,99.90
2019-04-23T05:16:47.014Z,99.90
2019-04-23T05:19:29.587Z,99.90
2019-04-23T05:21:53.988Z,99.90
2019-04-23T05:24:23.464Z,99.90
2019-04-23T05:26:58.525Z,99.90
2019-04-23T05:31:50.851Z,99.00
2019-04-23T05:34:40.222Z,97.70
2019-04-23T05:37:45.260Z,97.00
2019-04-23T05:39:54.552Z,96.70
2019-04-23T05:42:49.809Z,96.00
2019-04-23T05:45:16.656Z,95.30
2019-04-23T05:48:06.732Z,94.30
2019-04-23T05:51:49.155Z,93.40
2019-04-23T05:54:27.687Z,93.10
2019-04-23T06:00:02.369Z,92.30
2019-04-23T06:03:17.956Z,92.40
2019-04-23T06:11:02.386Z,91.30
2019-04-23T06:13:44.578Z,90.20
2019-04-23T06:17:15.194Z,89.10
2019-04-23T06:19:55.096Z,90.00
2019-04-23T06:23:05.721Z,87.60
2019-04-23T06:28:50.777Z,88.40
2019-04-23T06:31:30.888Z,87.80
2019-04-23T06:38:28.106Z,87.20
2019-04-23T06:41:16.982Z,88.20
2019-04-23T06:44:37.873Z,89.00
2019-04-23T06:47:56.478Z,89.20
2019-04-23T06:52:10.453Z,89.10
2019-04-23T07:42:29.766Z,86.00
2019-04-23T07:48:30.498Z,85.70
2019-04-23T07:50:55.630Z,84.00
2019-04-23T07:53:40.107Z,84.90
2019-04-23T07:57:02.882Z,83.30
2019-04-23T07:59:48.599Z,83.20
2019-04-23T08:02:15.969Z,83.70
2019-04-23T08:07:40.242Z,83.80
2019-04-23T08:10:31.738Z,84.30
2019-04-23T08:13:10.008Z,84.60
2019-04-23T08:18:13.661Z,84.10
2019-04-23T08:23:26.048Z,83.60
2019-04-23T08:26:23.939Z,84.20
2019-04-23T08:29:00.967Z,83.90
2019-04-23T08:31:15.264Z,82.40
2019-04-23T08:33:52.999Z,83.30
2019-04-23T08:36:23.731Z,83.20
2019-04-23T08:38:50.767Z,82.50
2019-04-23T08:41:27.023Z,82.70
2019-04-23T08:43:57.187Z,82.50
2019-04-23T08:49:36.146Z,82.80
2019-04-23T08:52:07.156Z,83.10
2019-04-23T08:57:24.024Z,80.60
2019-04-23T09:00:04.346Z,81.60
2019-04-23T09:02:40.325Z,80.90
2019-04-23T09:10:40.965Z,82.30
2019-04-23T09:15:49.934Z,80.30
2019-04-23T09:18:16.675Z,81.20
2019-04-23T09:20:42.266Z,79.80
2019-04-23T09:23:30.877Z,80.80
2019-04-23T09:25:54.350Z,78.70
2019-04-23T09:31:04.160Z,79.40
2019-04-23T09:33:39.404Z,79.80
2019-04-23T09:36:30.714Z,79.00
2019-04-23T09:39:30.422Z,78.20
2019-04-23T09:42:16.088Z,77.80
2019-04-23T09:48:01.559Z,77.20
2019-04-23T09:56:01.133Z,75.70
2019-04-23T09:58:16.741Z,76.70
2019-04-23T10:01:17.335Z,76.70
2019-04-23T10:03:25.504Z,75.00
2019-04-23T10:05:53.444Z,75.40
2019-04-23T10:08:21.159Z,75.60
2019-04-23T10:10:43.145Z,74.70
2019-04-23T10:13:11.619Z,74.60
2019-04-23T10:15:45.714Z,75.40
2019-04-23T10:18:12.028Z,74.10
2019-04-23T10:20:40.412Z,73.70
2019-04-23T10:23:08.518Z,73.00
2019-04-23T10:25:36.342Z,73.60
2019-04-23T10:28:10.910Z,72.50
2019-04-23T10:30:44.986Z,72.90
2019-04-23T10:33:13.959Z,73.70
2019-04-23T10:35:51.510Z,72.90
2019-04-23T10:38:20.010Z,73.00
2019-04-23T10:40:50.222Z,72.60
2019-04-23T10:43:20.587Z,73.70
2019-04-23T10:46:32.561Z,74.40
2019-04-23T10:52:15.432Z,70.40
2019-04-23T10:54:43.385Z,71.20
2019-04-23T10:57:15.908Z,71.50
2019-04-23T11:12:50.765Z,71.90
2019-04-23T11:15:34.791Z,71.20
2019-04-23T11:20:35.305Z,71.20
2019-04-23T11:22:56.770Z,70.90
2019-04-23T11:30:41.619Z,70.00
2019-04-23T11:33:14.716Z,69.70
2019-04-23T11:40:42.120Z,69.10
2019-04-23T11:43:29.051Z,69.30
2019-04-23T11:46:25.135Z,67.80
2019-04-23T11:48:51.966Z,68.20
2019-04-23T11:53:55.878Z,68.10
2019-04-23T11:57:04.745Z,68.20
2019-04-23T11:59:29.188Z,67.50
2019-04-23T12:01:52.747Z,67.00
2019-04-23T12:04:49.906Z,66.40
2019-04-23T12:07:32.742Z,67.30
2019-04-23T12:10:29.248Z,68.30
2019-04-23T12:12:55.004Z,67.20
2019-04-23T12:18:58.139Z,66.60
2019-04-23T12:21:29.912Z,65.30
2019-04-23T12:28:57.731Z,64.80
2019-04-23T12:31:34.466Z,65.40
2019-04-23T12:39:11.219Z,63.80
2019-04-23T12:41:51.075Z,64.30
2019-04-23T12:44:17.836Z,64.20
2019-04-23T12:46:55.966Z,65.20
2019-04-23T12:49:44.175Z,64.90
2019-04-23T12:51:55.978Z,64.40
2019-04-23T12:54:51.623Z,64.30
2019-04-23T12:57:14.593Z,64.30
2019-04-23T12:59:44.055Z,63.80
2019-04-23T13:02:15.988Z,63.70
2019-04-23T13:07:29.293Z,65.00
2019-04-23T13:09:58.614Z,62.40
2019-04-23T13:15:12.855Z,63.30
2019-04-23T13:22:49.464Z,62.20
2019-04-23T13:25:36.835Z,62.50
2019-04-23T13:28:06.525Z,63.70
2019-04-23T13:33:20.938Z,63.30
2019-04-23T13:38:33.499Z,61.70
2019-04-23T13:41:01.138Z,61.70
2019-04-23T13:43:40.456Z,62.00
2019-04-23T13:46:06.906Z,62.40
2019-04-23T13:48:20.144Z,63.60
2019-04-23T13:53:50.110Z,63.90
2019-04-23T13:56:03.711Z,62.00
2019-04-23T13:58:59.970Z,63.00
2019-04-23T14:04:14.260Z,62.80
2019-04-23T14:08:59.859Z,63.40
2019-04-23T14:16:48.451Z,63.00
2019-04-23T14:19:04.944Z,62.70
2019-04-23T14:21:37.626Z,64.20
2019-04-23T14:24:18.054Z,62.20
2019-04-23T14:29:04.423Z,63.70
2019-04-23T14:31:51.243Z,62.60
2019-04-23T14:34:31.178Z,62.90
2019-04-23T14:36:55.746Z,63.40
2019-04-23T14:39:43.744Z,63.70
2019-04-23T14:42:09.265Z,63.80
2019-04-23T14:44:30.938Z,64.80
2019-04-23T14:47:18.368Z,64.70
2019-04-23T14:50:12.615Z,64.50
2019-04-23T14:52:21.363Z,65.00
2019-04-23T14:55:36.216Z,65.40
2019-04-23T14:58:00.866Z,66.00
2019-04-23T15:00:25.424Z,65.30
2019-04-23T15:03:15.487Z,64.90
2019-04-23T15:05:52.755Z,66.20
2019-04-23T15:08:16.902Z,65.90
2019-04-23T15:13:23.054Z,66.70
2019-04-23T15:16:16.991Z,66.80
2019-04-23T15:19:06.871Z,66.80
2019-04-23T15:24:23.247Z,67.30
2019-04-23T15:29:33.669Z,67.40
2019-04-23T15:34:45.347Z,68.40
2019-04-23T15:38:02.186Z,68.00
2019-04-23T15:40:16.538Z,68.10
2019-04-23T15:42:45.291Z,68.10
2019-04-23T15:45:15.138Z,69.10
2019-04-23T15:47:54.039Z,69.10
2019-04-23T15:50:22.150Z,69.30
2019-04-23T15:55:22.522Z,68.80
2019-04-23T15:58:09.311Z,69.60
2019-04-23T16:00:30.754Z,69.50
2019-04-23T16:02:35.691Z,69.20
2019-04-23T16:05:09.417Z,70.20
2019-04-23T16:08:05.473Z,71.10
2019-04-23T16:10:56.489Z,70.30
2019-04-23T16:13:28.877Z,70.60
2019-04-23T16:16:06.265Z,70.00
2019-04-23T16:21:26.846Z,70.70
2019-04-23T16:23:42.408Z,71.40
2019-04-23T16:26:28.473Z,71.70
2019-04-23T16:32:20.461Z,71.80
2019-04-23T16:34:58.386Z,72.90
2019-04-23T16:37:29.159Z,73.40
2019-04-23T16:43:35.675Z,73.70
2019-04-23T16:46:33.694Z,73.40
2019-04-23T16:51:32.740Z,73.80
2019-04-23T16:54:10.395Z,74.70
2019-04-23T16:56:55.242Z,74.90
2019-04-23T17:01:55.095Z,75.10
2019-04-23T17:07:20.320Z,74.80
2019-04-23T17:12:38.364Z,75.00
2019-04-23T17:15:08.987Z,75.30
2019-04-23T17:17:43.394Z,75.60
2019-04-23T17:20:16.056Z,76.20
2019-04-23T17:22:59.906Z,76.50
2019-04-23T17:28:07.155Z,77.00
2019-04-23T17:36:34.902Z,76.60
2019-04-23T17:39:21.117Z,77.00
2019-04-23T17:45:30.827Z,77.50
2019-04-23T17:48:11.658Z,78.30
2019-04-23T17:51:11.831Z,78.30
2019-04-23T17:56:27.133Z,78.20
2019-04-23T17:59:13.298Z,78.50
2019-04-23T18:01:59.214Z,79.00
2019-04-23T18:04:33.278Z,79.80
2019-04-23T18:07:10.940Z,79.60
2019-04-23T18:09:50.902Z,80.00
2019-04-23T18:12:31.056Z,80.40
2019-04-23T18:15:04.735Z,80.60
2019-04-23T18:17:41.066Z,80.70
2019-04-23T18:20:39.315Z,81.00
2019-04-23T18:23:06.662Z,81.40
2019-04-23T18:25:45.701Z,82.10
2019-04-23T18:28:29.706Z,82.20
2019-04-23T18:31:33.245Z,82.30
2019-04-23T18:34:08.690Z,82.80
2019-04-23T18:36:48.193Z,83.00
2019-04-23T18:39:25.112Z,83.10
2019-04-23T18:42:00.016Z,83.50
2019-04-23T18:44:36.438Z,83.90
2019-04-23T18:47:07.068Z,84.00
2019-04-23T18:49:41.383Z,84.20
2019-04-23T18:52:20.874Z,84.90
2019-04-23T18:54:53.977Z,85.00
2019-04-23T18:57:12.671Z,85.60
2019-04-23T19:00:03.010Z,86.20
2019-04-23T19:02:56.607Z,86.50
2019-04-23T19:11:02.038Z,87.30
2019-04-23T19:13:40.118Z,87.60
2019-04-23T19:16:13.096Z,87.80
2019-04-23T19:24:53.461Z,88.50
2019-04-23T19:27:49.815Z,88.80
2019-04-23T19:30:38.862Z,89.10
2019-04-23T19:33:22.433Z,89.40
2019-04-23T19:40:51.740Z,90.30
2019-04-23T19:43:19.107Z,90.30
2019-04-23T19:46:11.064Z,90.40
2019-04-23T19:48:33.540Z,90.50
2019-04-23T19:51:02.689Z,90.60
2019-04-23T19:53:45.171Z,90.80
2019-04-23T19:56:16.784Z,91.00
2019-04-23T19:58:44.922Z,91.10
2019-04-23T20:03:49.506Z,91.30
2019-04-23T20:11:42.558Z,91.70
2019-04-23T20:14:25.292Z,91.80
2019-04-23T20:17:00.657Z,92.00
2019-04-23T20:19:23.882Z,92.20
2019-04-23T20:24:39.676Z,92.40
2019-04-23T20:27:42.384Z,92.50
2019-04-23T20:36:32.565Z,92.90
2019-04-23T20:40:08.611Z,93.20
2019-04-23T20:42:36.697Z,93.20
2019-04-23T20:48:14.177Z,93.70
2019-04-23T20:53:28.232Z,94.20
2019-04-23T20:58:48.180Z,94.70
2019-04-23T21:01:22.246Z,94.90
2019-04-23T21:03:56.652Z,95.30
2019-04-23T21:06:45.910Z,95.60
2019-04-23T21:09:28.200Z,95.90
2019-04-23T21:12:04.221Z,96.20
2019-04-23T21:14:50.857Z,96.40
2019-04-23T21:17:07.431Z,96.60
2019-04-23T21:19:50.545Z,96.90
2019-04-23T21:23:09.434Z,97.30
2019-04-23T21:25:06.088Z,97.50
2019-04-23T21:27:57.240Z,97.70
2019-04-23T21:30:43.636Z,97.90
2019-04-23T21:33:11.915Z,98.20
2019-04-23T21:36:10.724Z,98.60
2019-04-23T21:38:46.384Z,98.90
2019-04-23T21:41:32.960Z,99.00
2019-04-23T21:44:08.573Z,99.30
2019-04-23T21:49:18.292Z,99.90
2019-04-23T21:51:46.092Z,99.90
2019-04-23T21:56:48.231Z,99.90
2019-04-23T21:59:29.626Z,99.90
2019-04-23T22:01:57.415Z,99.90
2019-04-23T22:06:54.060Z,99.90
2019-04-23T22:09:31.447Z,99.90
2019-04-23T22:12:05.577Z,99.90
2019-04-23T22:14:33.851Z,99.90
2019-04-23T22:19:38.217Z,99.90
2019-04-23T22:22:18.374Z,99.90
2019-04-23T22:24:32.183Z,99.90
2019-04-23T22:27:35.466Z,99.90
2019-04-23T22:32:20.154Z,99.90
2019-04-23T22:34:56.007Z,99.90
2019-04-23T22:37:23.637Z,99.90
2019-04-23T22:39:58.996Z,99.90
2019-04-23T22:42:41.230Z,99.90
2019-04-23T22:45:05.860Z,99.90
2019-04-23T22:47:34.551Z,99.90
2019-04-23T22:55:23.570Z,99.90
2019-04-23T22:58:05.197Z,99.90
2019-04-23T23:03:09.860Z,99.90
2019-04-23T23:05:56.264Z,99.90
2019-04-23T23:10:57.496Z,99.90
2019-04-23T23:13:35.752Z,99.90
2019-04-23T23:16:14.856Z,99.90
2019-04-23T23:18:49.435Z,99.90
2019-04-23T23:21:16.395Z,99.90
2019-04-23T23:23:39.385Z,99.90
2019-04-23T23:26:09.366Z,99.90
2019-04-23T23:28:41.208Z,99.90
2019-04-23T23:36:14.171Z,99.90
2019-04-23T23:38:50.601Z,99.90
2019-04-23T23:43:54.425Z,99.90
2019-04-23T23:48:48.388Z,99.90
2019-04-23T23:51:21.591Z,99.90
2019-04-23T23:56:20.771Z,99.90
2019-04-23T23:59:04.242Z,99.90
